sensor_id;sensor_type;location;lat;lon;timestamp;pressure;altitude;pressure_sealevel;temperature;humidity
5284;BME280;15377;48.540;9.268;2023-02-15T00:01:13;98736.97;;;-1.69;100.00
5284;BME280;15377;48.540;9.268;2023-02-15T00:03:39;98734.94;;;-1.75;100.00
5284;BME280;15377;48.540;9.268;2023-02-15T00:06:04;98726.59;;;-1.89;100.00
5284;BME280;15377;48.540;9.268;2023-02-15T00:08:30;98733.94;;;-1.86;100.00
5284;BME280;15377;48.540;9.268;2023-02-15T00:11:08;98725.09;;;-1.64;100.00
5284;BME280;15377;48.540;9.268;2023-02-15T00:13:34;98714.00;;;-1.59;100.00
5284;BME280;15377;48.540;9.268;2023-02-15T00:16:06;98708.63;;;-1.59;100.00
5284;BME280;15377;48.540;9.268;2023-02-15T00:18:32;98723.78;;;-1.51;100.00
5284;BME280;15377;48.540;9.268;2023-02-15T00:20:58;98709.56;;;-1.48;100.00
5284;BME280;15377;48.540;9.268;2023-02-15T00:23:28;98712.03;;;-1.40;100.00
5284;BME280;15377;48.540;9.268;2023-02-15T00:26:03;98713.16;;;-1.63;100.00
5284;BME280;15377;48.540;9.268;2023-02-15T00:28:29;98720.00;;;-1.47;100.00
5284;BME280;15377;48.540;9.268;2023-02-15T00:31:05;98715.06;;;-1.41;100.00
5284;BME280;15377;48.540;9.268;2023-02-15T00:33:30;98718.31;;;-1.32;100.00
5284;BME280;15377;48.540;9.268;2023-02-15T00:36:00;98716.81;;;-1.30;100.00
5284;BME280;15377;48.540;9.268;2023-02-15T00:38:27;98715.53;;;-1.36;100.00
5284;BME280;15377;48.540;9.268;2023-02-15T00:40:57;98682.00;;;-1.83;100.00
5284;BME280;15377;48.540;9.268;2023-02-15T00:43:23;98711.00;;;-1.54;100.00
5284;BME280;15377;48.540;9.268;2023-02-15T00:45:49;98667.78;;;-2.03;100.00
5284;BME280;15377;48.540;9.268;2023-02-15T00:48:14;98707.09;;;-2.02;100.00
5284;BME280;15377;48.540;9.268;2023-02-15T00:50:40;98703.91;;;-2.07;100.00
5284;BME280;15377;48.540;9.268;2023-02-15T00:53:05;98709.03;;;-2.21;100.00
5284;BME280;15377;48.540;9.268;2023-02-15T00:55:31;98701.94;;;-2.29;100.00
5284;BME280;15377;48.540;9.268;2023-02-15T00:57:56;98700.25;;;-2.37;100.00
5284;BME280;15377;48.540;9.268;2023-02-15T01:00:22;98697.91;;;-2.39;100.00
5284;BME280;15377;48.540;9.268;2023-02-15T01:02:47;98702.59;;;-2.36;100.00
5284;BME280;15377;48.540;9.268;2023-02-15T01:05:12;98708.00;;;-2.36;100.00
5284;BME280;15377;48.540;9.268;2023-02-15T01:07:38;98701.38;;;-2.38;100.00
5284;BME280;15377;48.540;9.268;2023-02-15T01:10:05;98704.34;;;-2.43;100.00
5284;BME280;15377;48.540;9.268;2023-02-15T01:12:31;98671.66;;;-2.61;100.00
5284;BME280;15377;48.540;9.268;2023-02-15T01:14:56;98696.28;;;-2.43;100.00
5284;BME280;15377;48.540;9.268;2023-02-15T01:17:22;98701.53;;;-2.50;100.00
5284;BME280;15377;48.540;9.268;2023-02-15T01:19:47;98699.81;;;-2.58;100.00
5284;BME280;15377;48.540;9.268;2023-02-15T01:22:12;98703.50;;;-2.66;100.00
5284;BME280;15377;48.540;9.268;2023-02-15T01:24:38;98706.50;;;-2.71;100.00
5284;BME280;15377;48.540;9.268;2023-02-15T01:27:03;98700.16;;;-2.60;100.00
5284;BME280;15377;48.540;9.268;2023-02-15T01:29:28;98698.84;;;-2.69;100.00
5284;BME280;15377;48.540;9.268;2023-02-15T01:31:54;98704.06;;;-2.76;100.00
5284;BME280;15377;48.540;9.268;2023-02-15T01:34:19;98701.88;;;-2.71;100.00
5284;BME280;15377;48.540;9.268;2023-02-15T01:36:44;98704.06;;;-2.76;100.00
5284;BME280;15377;48.540;9.268;2023-02-15T01:39:10;98699.25;;;-2.86;100.00
5284;BME280;15377;48.540;9.268;2023-02-15T01:41:36;98686.50;;;-2.70;100.00
5284;BME280;15377;48.540;9.268;2023-02-15T01:44:02;98700.47;;;-2.65;100.00
5284;BME280;15377;48.540;9.268;2023-02-15T01:46:40;98680.22;;;-2.93;100.00
5284;BME280;15377;48.540;9.268;2023-02-15T01:49:12;98697.59;;;-2.91;100.00
5284;BME280;15377;48.540;9.268;2023-02-15T01:51:40;98692.97;;;-2.90;100.00
5284;BME280;15377;48.540;9.268;2023-02-15T01:54:29;98700.88;;;-2.82;100.00
5284;BME280;15377;48.540;9.268;2023-02-15T01:57:03;98693.94;;;-2.83;100.00
5284;BME280;15377;48.540;9.268;2023-02-15T01:59:31;98697.03;;;-2.81;100.00
5284;BME280;15377;48.540;9.268;2023-02-15T02:01:59;98692.81;;;-2.97;100.00
5284;BME280;15377;48.540;9.268;2023-02-15T02:04:31;98688.34;;;-3.09;100.00
5284;BME280;15377;48.540;9.268;2023-02-15T02:06:59;98690.53;;;-3.14;100.00
5284;BME280;15377;48.540;9.268;2023-02-15T02:09:25;98685.81;;;-3.02;100.00
5284;BME280;15377;48.540;9.268;2023-02-15T02:11:51;98684.41;;;-2.96;100.00
5284;BME280;15377;48.540;9.268;2023-02-15T02:14:19;98678.78;;;-3.06;100.00
5284;BME280;15377;48.540;9.268;2023-02-15T02:22:32;98666.63;;;-3.00;100.00
5284;BME280;15377;48.540;9.268;2023-02-15T02:27:49;98665.38;;;-2.87;100.00
5284;BME280;15377;48.540;9.268;2023-02-15T02:30:33;98672.22;;;-2.90;100.00
5284;BME280;15377;48.540;9.268;2023-02-15T02:33:28;98665.91;;;-2.97;100.00
5284;BME280;15377;48.540;9.268;2023-02-15T02:36:08;98670.13;;;-3.15;100.00
5284;BME280;15377;48.540;9.268;2023-02-15T02:38:53;98673.63;;;-3.30;100.00
5284;BME280;15377;48.540;9.268;2023-02-15T02:41:33;98673.25;;;-3.13;100.00
5284;BME280;15377;48.540;9.268;2023-02-15T02:44:29;98674.31;;;-3.18;100.00
5284;BME280;15377;48.540;9.268;2023-02-15T02:47:06;98669.78;;;-3.14;100.00
5284;BME280;15377;48.540;9.268;2023-02-15T02:49:41;98672.41;;;-3.17;100.00
5284;BME280;15377;48.540;9.268;2023-02-15T02:52:37;98669.00;;;-3.14;100.00
5284;BME280;15377;48.540;9.268;2023-02-15T02:55:15;98663.13;;;-3.01;100.00
5284;BME280;15377;48.540;9.268;2023-02-15T02:58:06;98663.56;;;-2.99;100.00
5284;BME280;15377;48.540;9.268;2023-02-15T03:00:40;98668.06;;;-2.87;100.00
5284;BME280;15377;48.540;9.268;2023-02-15T03:03:30;98669.56;;;-3.05;100.00
5284;BME280;15377;48.540;9.268;2023-02-15T03:06:00;98669.97;;;-3.22;100.00
5284;BME280;15377;48.540;9.268;2023-02-15T03:08:33;98658.03;;;-3.40;100.00
5284;BME280;15377;48.540;9.268;2023-02-15T03:11:02;98662.38;;;-3.51;100.00
5284;BME280;15377;48.540;9.268;2023-02-15T03:13:28;98652.41;;;-3.66;100.00
5284;BME280;15377;48.540;9.268;2023-02-15T03:15:54;98665.81;;;-3.69;100.00
5284;BME280;15377;48.540;9.268;2023-02-15T03:18:43;98657.47;;;-3.80;100.00
5284;BME280;15377;48.540;9.268;2023-02-15T03:21:19;98659.63;;;-3.70;100.00
5284;BME280;15377;48.540;9.268;2023-02-15T03:23:51;98663.69;;;-3.76;100.00
5284;BME280;15377;48.540;9.268;2023-02-15T03:26:17;98657.91;;;-3.78;100.00
5284;BME280;15377;48.540;9.268;2023-02-15T03:28:46;98643.16;;;-3.84;100.00
5284;BME280;15377;48.540;9.268;2023-02-15T03:31:14;98656.50;;;-3.72;100.00
5284;BME280;15377;48.540;9.268;2023-02-15T03:33:47;98653.81;;;-3.72;100.00
5284;BME280;15377;48.540;9.268;2023-02-15T03:36:30;98643.47;;;-3.85;100.00
5284;BME280;15377;48.540;9.268;2023-02-15T03:39:13;98656.34;;;-3.79;100.00
5284;BME280;15377;48.540;9.268;2023-02-15T03:41:48;98632.28;;;-3.87;100.00
5284;BME280;15377;48.540;9.268;2023-02-15T03:46:50;98648.78;;;-3.73;100.00
5284;BME280;15377;48.540;9.268;2023-02-15T03:49:22;98647.19;;;-3.59;100.00
5284;BME280;15377;48.540;9.268;2023-02-15T03:51:51;98639.13;;;-3.59;100.00
5284;BME280;15377;48.540;9.268;2023-02-15T03:54:30;98646.88;;;-3.23;100.00
5284;BME280;15377;48.540;9.268;2023-02-15T03:57:30;98652.72;;;-3.02;100.00
5284;BME280;15377;48.540;9.268;2023-02-15T04:00:19;98650.88;;;-2.98;100.00
5284;BME280;15377;48.540;9.268;2023-02-15T04:05:43;98650.72;;;-3.24;100.00
5284;BME280;15377;48.540;9.268;2023-02-15T04:08:10;98642.97;;;-3.26;100.00
5284;BME280;15377;48.540;9.268;2023-02-15T04:10:35;98633.22;;;-3.49;100.00
5284;BME280;15377;48.540;9.268;2023-02-15T04:13:21;98649.88;;;-3.59;100.00
5284;BME280;15377;48.540;9.268;2023-02-15T04:15:47;98637.66;;;-3.57;100.00
5284;BME280;15377;48.540;9.268;2023-02-15T04:18:39;98643.03;;;-3.41;100.00
5284;BME280;15377;48.540;9.268;2023-02-15T04:21:25;98641.19;;;-3.37;100.00
5284;BME280;15377;48.540;9.268;2023-02-15T04:24:09;98639.91;;;-3.58;100.00
5284;BME280;15377;48.540;9.268;2023-02-15T04:26:53;98651.03;;;-3.60;100.00
5284;BME280;15377;48.540;9.268;2023-02-15T04:29:20;98634.66;;;-3.86;100.00
5284;BME280;15377;48.540;9.268;2023-02-15T04:31:46;98645.47;;;-3.67;100.00
5284;BME280;15377;48.540;9.268;2023-02-15T04:34:12;98640.88;;;-3.82;100.00
5284;BME280;15377;48.540;9.268;2023-02-15T04:36:38;98625.38;;;-3.88;100.00
5284;BME280;15377;48.540;9.268;2023-02-15T04:39:05;98649.03;;;-3.63;100.00
5284;BME280;15377;48.540;9.268;2023-02-15T04:41:30;98648.75;;;-3.58;100.00
5284;BME280;15377;48.540;9.268;2023-02-15T04:43:55;98649.38;;;-3.49;100.00
5284;BME280;15377;48.540;9.268;2023-02-15T04:46:21;98634.38;;;-3.50;100.00
5284;BME280;15377;48.540;9.268;2023-02-15T04:48:47;98649.63;;;-3.54;100.00
5284;BME280;15377;48.540;9.268;2023-02-15T04:51:12;98642.34;;;-3.69;100.00
5284;BME280;15377;48.540;9.268;2023-02-15T04:53:37;98639.88;;;-3.77;100.00
5284;BME280;15377;48.540;9.268;2023-02-15T04:56:03;98638.09;;;-3.70;100.00
5284;BME280;15377;48.540;9.268;2023-02-15T04:58:28;98630.63;;;-3.61;100.00
5284;BME280;15377;48.540;9.268;2023-02-15T05:00:56;98629.41;;;-3.48;100.00
5284;BME280;15377;48.540;9.268;2023-02-15T05:03:22;98631.81;;;-3.43;100.00
5284;BME280;15377;48.540;9.268;2023-02-15T05:05:48;98621.34;;;-3.48;100.00
5284;BME280;15377;48.540;9.268;2023-02-15T05:08:13;98610.16;;;-3.50;100.00
5284;BME280;15377;48.540;9.268;2023-02-15T05:10:39;98620.28;;;-3.44;100.00
5284;BME280;15377;48.540;9.268;2023-02-15T05:13:04;98609.34;;;-3.51;100.00
5284;BME280;15377;48.540;9.268;2023-02-15T05:15:29;98613.09;;;-3.55;100.00
5284;BME280;15377;48.540;9.268;2023-02-15T05:17:55;98618.78;;;-3.75;100.00
5284;BME280;15377;48.540;9.268;2023-02-15T05:20:20;98621.38;;;-3.79;100.00
5284;BME280;15377;48.540;9.268;2023-02-15T05:22:45;98621.19;;;-3.70;100.00
5284;BME280;15377;48.540;9.268;2023-02-15T05:25:11;98622.81;;;-3.66;100.00
5284;BME280;15377;48.540;9.268;2023-02-15T05:27:54;98623.84;;;-3.55;100.00
5284;BME280;15377;48.540;9.268;2023-02-15T05:30:38;98632.34;;;-3.53;100.00
5284;BME280;15377;48.540;9.268;2023-02-15T05:33:07;98619.53;;;-3.59;100.00
5284;BME280;15377;48.540;9.268;2023-02-15T05:35:34;98624.44;;;-3.46;100.00
5284;BME280;15377;48.540;9.268;2023-02-15T05:37:59;98622.69;;;-3.39;100.00
5284;BME280;15377;48.540;9.268;2023-02-15T05:40:25;98611.91;;;-3.39;100.00
5284;BME280;15377;48.540;9.268;2023-02-15T05:42:50;98617.19;;;-3.27;100.00
5284;BME280;15377;48.540;9.268;2023-02-15T05:45:16;98626.19;;;-3.19;100.00
5284;BME280;15377;48.540;9.268;2023-02-15T05:47:41;98625.09;;;-2.99;100.00
5284;BME280;15377;48.540;9.268;2023-02-15T05:50:07;98632.97;;;-2.91;100.00
5284;BME280;15377;48.540;9.268;2023-02-15T05:52:34;98624.25;;;-2.84;100.00
5284;BME280;15377;48.540;9.268;2023-02-15T05:54:59;98614.47;;;-2.92;100.00
5284;BME280;15377;48.540;9.268;2023-02-15T05:57:26;98632.19;;;-2.91;100.00
5284;BME280;15377;48.540;9.268;2023-02-15T05:59:51;98639.53;;;-3.07;100.00
5284;BME280;15377;48.540;9.268;2023-02-15T06:02:16;98636.66;;;-2.99;100.00
5284;BME280;15377;48.540;9.268;2023-02-15T06:04:42;98636.78;;;-2.92;100.00
5284;BME280;15377;48.540;9.268;2023-02-15T06:07:07;98638.28;;;-2.94;100.00
5284;BME280;15377;48.540;9.268;2023-02-15T06:09:32;98642.41;;;-3.16;100.00
5284;BME280;15377;48.540;9.268;2023-02-15T06:11:58;98641.00;;;-3.44;100.00
5284;BME280;15377;48.540;9.268;2023-02-15T06:14:23;98644.41;;;-3.63;100.00
5284;BME280;15377;48.540;9.268;2023-02-15T06:16:48;98647.72;;;-3.69;100.00
5284;BME280;15377;48.540;9.268;2023-02-15T06:19:14;98641.41;;;-3.61;100.00
5284;BME280;15377;48.540;9.268;2023-02-15T06:21:39;98647.19;;;-3.44;100.00
5284;BME280;15377;48.540;9.268;2023-02-15T06:24:05;98649.00;;;-3.32;100.00
5284;BME280;15377;48.540;9.268;2023-02-15T06:26:30;98649.56;;;-3.23;100.00
5284;BME280;15377;48.540;9.268;2023-02-15T06:28:55;98654.25;;;-3.20;100.00
5284;BME280;15377;48.540;9.268;2023-02-15T06:31:21;98657.16;;;-3.10;100.00
5284;BME280;15377;48.540;9.268;2023-02-15T06:33:46;98652.44;;;-3.16;100.00
5284;BME280;15377;48.540;9.268;2023-02-15T06:36:11;98664.44;;;-3.29;100.00
5284;BME280;15377;48.540;9.268;2023-02-15T06:38:37;98663.78;;;-3.57;100.00
5284;BME280;15377;48.540;9.268;2023-02-15T06:41:03;98664.13;;;-3.74;100.00
5284;BME280;15377;48.540;9.268;2023-02-15T06:43:28;98676.28;;;-3.80;100.00
5284;BME280;15377;48.540;9.268;2023-02-15T06:45:53;98667.78;;;-3.82;100.00
5284;BME280;15377;48.540;9.268;2023-02-15T06:48:19;98663.28;;;-3.78;100.00
5284;BME280;15377;48.540;9.268;2023-02-15T06:50:44;98668.66;;;-3.78;100.00
5284;BME280;15377;48.540;9.268;2023-02-15T06:53:09;98675.13;;;-3.63;100.00
5284;BME280;15377;48.540;9.268;2023-02-15T06:55:35;98666.56;;;-3.69;100.00
5284;BME280;15377;48.540;9.268;2023-02-15T06:58:00;98665.44;;;-3.68;100.00
5284;BME280;15377;48.540;9.268;2023-02-15T07:00:25;98681.50;;;-3.56;100.00
5284;BME280;15377;48.540;9.268;2023-02-15T07:02:55;98673.31;;;-3.44;100.00
5284;BME280;15377;48.540;9.268;2023-02-15T07:05:24;98675.03;;;-3.36;100.00
5284;BME280;15377;48.540;9.268;2023-02-15T07:07:55;98681.88;;;-3.39;100.00
5284;BME280;15377;48.540;9.268;2023-02-15T07:10:21;98679.56;;;-3.40;100.00
5284;BME280;15377;48.540;9.268;2023-02-15T07:12:46;98688.06;;;-3.38;100.00
5284;BME280;15377;48.540;9.268;2023-02-15T07:15:15;98674.25;;;-3.37;100.00
5284;BME280;15377;48.540;9.268;2023-02-15T07:17:41;98674.44;;;-3.30;100.00
5284;BME280;15377;48.540;9.268;2023-02-15T07:20:12;98672.25;;;-3.24;100.00
5284;BME280;15377;48.540;9.268;2023-02-15T07:22:38;98678.72;;;-3.10;100.00
5284;BME280;15377;48.540;9.268;2023-02-15T07:25:05;98677.66;;;-3.05;100.00
5284;BME280;15377;48.540;9.268;2023-02-15T07:27:31;98676.81;;;-2.90;100.00
5284;BME280;15377;48.540;9.268;2023-02-15T07:29:57;98680.53;;;-2.79;100.00
5284;BME280;15377;48.540;9.268;2023-02-15T07:32:23;98675.72;;;-2.70;100.00
5284;BME280;15377;48.540;9.268;2023-02-15T07:34:48;98675.22;;;-2.57;100.00
5284;BME280;15377;48.540;9.268;2023-02-15T07:37:14;98676.25;;;-2.42;100.00
5284;BME280;15377;48.540;9.268;2023-02-15T07:39:39;98673.84;;;-2.28;100.00
5284;BME280;15377;48.540;9.268;2023-02-15T07:42:04;98672.97;;;-2.13;100.00
5284;BME280;15377;48.540;9.268;2023-02-15T07:44:30;98671.78;;;-1.93;100.00
5284;BME280;15377;48.540;9.268;2023-02-15T07:46:55;98670.13;;;-1.79;100.00
5284;BME280;15377;48.540;9.268;2023-02-15T07:49:20;98655.97;;;-1.72;100.00
5284;BME280;15377;48.540;9.268;2023-02-15T07:51:46;98660.75;;;-1.62;100.00
5284;BME280;15377;48.540;9.268;2023-02-15T07:54:11;98658.59;;;-1.53;100.00
5284;BME280;15377;48.540;9.268;2023-02-15T07:56:36;98662.91;;;-1.49;100.00
5284;BME280;15377;48.540;9.268;2023-02-15T07:59:02;98648.63;;;-1.49;100.00
5284;BME280;15377;48.540;9.268;2023-02-15T08:01:33;98652.56;;;-1.43;100.00
5284;BME280;15377;48.540;9.268;2023-02-15T08:04:00;98652.06;;;-1.26;100.00
5284;BME280;15377;48.540;9.268;2023-02-15T08:06:28;98650.16;;;-1.26;100.00
5284;BME280;15377;48.540;9.268;2023-02-15T08:08:54;98648.63;;;-1.23;100.00
5284;BME280;15377;48.540;9.268;2023-02-15T08:11:27;98646.06;;;-1.13;100.00
5284;BME280;15377;48.540;9.268;2023-02-15T08:14:05;98641.69;;;-0.95;100.00
5284;BME280;15377;48.540;9.268;2023-02-15T08:16:55;98651.13;;;-0.82;100.00
5284;BME280;15377;48.540;9.268;2023-02-15T08:19:29;98646.25;;;-0.69;100.00
5284;BME280;15377;48.540;9.268;2023-02-15T08:21:57;98647.53;;;-0.60;100.00
5284;BME280;15377;48.540;9.268;2023-02-15T08:24:24;98648.38;;;-0.52;100.00
5284;BME280;15377;48.540;9.268;2023-02-15T08:26:50;98646.13;;;-0.50;100.00
5284;BME280;15377;48.540;9.268;2023-02-15T08:29:18;98648.91;;;-0.40;100.00
5284;BME280;15377;48.540;9.268;2023-02-15T08:31:45;98654.53;;;-0.22;100.00
5284;BME280;15377;48.540;9.268;2023-02-15T08:34:14;98647.38;;;-0.05;100.00
5284;BME280;15377;48.540;9.268;2023-02-15T08:36:40;98659.84;;;0.07;100.00
5284;BME280;15377;48.540;9.268;2023-02-15T08:39:07;98652.66;;;0.21;100.00
5284;BME280;15377;48.540;9.268;2023-02-15T08:41:34;98635.03;;;0.41;100.00
5284;BME280;15377;48.540;9.268;2023-02-15T08:44:02;98633.97;;;0.56;100.00
5284;BME280;15377;48.540;9.268;2023-02-15T08:46:31;98644.13;;;0.70;100.00
5284;BME280;15377;48.540;9.268;2023-02-15T08:48:57;98637.22;;;0.79;100.00
5284;BME280;15377;48.540;9.268;2023-02-15T08:51:28;98631.13;;;0.93;100.00
5284;BME280;15377;48.540;9.268;2023-02-15T08:53:57;98639.41;;;1.17;100.00
5284;BME280;15377;48.540;9.268;2023-02-15T08:56:25;98638.72;;;1.38;100.00
5284;BME280;15377;48.540;9.268;2023-02-15T08:58:52;98634.56;;;1.61;100.00
5284;BME280;15377;48.540;9.268;2023-02-15T09:01:20;98632.69;;;2.00;100.00
5284;BME280;15377;48.540;9.268;2023-02-15T09:03:48;98633.81;;;3.11;100.00
5284;BME280;15377;48.540;9.268;2023-02-15T09:06:15;98624.97;;;5.55;100.00
5284;BME280;15377;48.540;9.268;2023-02-15T09:08:41;98644.56;;;7.47;100.00
5284;BME280;15377;48.540;9.268;2023-02-15T09:11:07;98669.53;;;9.07;100.00
5284;BME280;15377;48.540;9.268;2023-02-15T09:13:33;98663.97;;;9.96;100.00
5284;BME280;15377;48.540;9.268;2023-02-15T09:16:04;98671.91;;;11.06;100.00
5284;BME280;15377;48.540;9.268;2023-02-15T09:18:31;98662.13;;;11.73;100.00
5284;BME280;15377;48.540;9.268;2023-02-15T09:21:16;98664.63;;;12.72;100.00
5284;BME280;15377;48.540;9.268;2023-02-15T09:23:43;98675.56;;;13.69;97.88
5284;BME280;15377;48.540;9.268;2023-02-15T09:26:15;98648.72;;;14.11;83.97
5284;BME280;15377;48.540;9.268;2023-02-15T09:28:41;98670.59;;;15.00;77.81
5284;BME280;15377;48.540;9.268;2023-02-15T09:31:20;98662.94;;;15.80;73.40
5284;BME280;15377;48.540;9.268;2023-02-15T09:33:47;98668.97;;;16.66;64.86
5284;BME280;15377;48.540;9.268;2023-02-15T09:36:37;98653.19;;;16.43;54.36
5284;BME280;15377;48.540;9.268;2023-02-15T09:39:10;98660.31;;;16.78;49.64
5284;BME280;15377;48.540;9.268;2023-02-15T09:42:06;98663.53;;;18.31;51.88
5284;BME280;15377;48.540;9.268;2023-02-15T09:44:57;98657.19;;;18.62;46.51
5284;BME280;15377;48.540;9.268;2023-02-15T10:07:13;98646.63;;;19.66;39.52
5284;BME280;15377;48.540;9.268;2023-02-15T10:12:48;98637.84;;;19.95;37.27
5284;BME280;15377;48.540;9.268;2023-02-15T10:15:41;98634.75;;;19.82;37.45
5284;BME280;15377;48.540;9.268;2023-02-15T10:21:23;98625.31;;;16.52;45.16
5284;BME280;15377;48.540;9.268;2023-02-15T10:26:43;98629.53;;;12.42;59.58
5284;BME280;15377;48.540;9.268;2023-02-15T10:29:25;98616.94;;;11.03;63.56
5284;BME280;15377;48.540;9.268;2023-02-15T10:34:46;98618.50;;;9.38;83.54
5284;BME280;15377;48.540;9.268;2023-02-15T10:37:46;98628.03;;;8.89;88.25
5284;BME280;15377;48.540;9.268;2023-02-15T10:40:22;98616.91;;;8.64;92.39
5284;BME280;15377;48.540;9.268;2023-02-15T10:43:14;98617.50;;;8.40;95.82
5284;BME280;15377;48.540;9.268;2023-02-15T10:45:58;98614.06;;;7.84;99.35
5284;BME280;15377;48.540;9.268;2023-02-15T10:51:34;98608.81;;;7.54;100.00
5284;BME280;15377;48.540;9.268;2023-02-15T10:57:22;98592.84;;;7.49;100.00
5284;BME280;15377;48.540;9.268;2023-02-15T11:00:16;98594.06;;;7.29;100.00
5284;BME280;15377;48.540;9.268;2023-02-15T11:03:08;98582.84;;;7.23;100.00
5284;BME280;15377;48.540;9.268;2023-02-15T11:08:20;98591.84;;;7.24;100.00
5284;BME280;15377;48.540;9.268;2023-02-15T11:10:48;98584.66;;;7.30;100.00
5284;BME280;15377;48.540;9.268;2023-02-15T11:13:22;98579.09;;;7.33;100.00
5284;BME280;15377;48.540;9.268;2023-02-15T11:15:53;98572.34;;;7.38;100.00
5284;BME280;15377;48.540;9.268;2023-02-15T11:18:38;98568.88;;;7.37;100.00
5284;BME280;15377;48.540;9.268;2023-02-15T11:21:21;98562.88;;;7.42;100.00
5284;BME280;15377;48.540;9.268;2023-02-15T11:23:48;98574.06;;;7.51;100.00
5284;BME280;15377;48.540;9.268;2023-02-15T11:28:51;98557.69;;;7.48;100.00
5284;BME280;15377;48.540;9.268;2023-02-15T11:31:21;98562.50;;;7.60;100.00
5284;BME280;15377;48.540;9.268;2023-02-15T11:33:55;98558.00;;;7.69;100.00
5284;BME280;15377;48.540;9.268;2023-02-15T11:36:25;98556.31;;;7.75;100.00
5284;BME280;15377;48.540;9.268;2023-02-15T11:38:58;98553.22;;;7.73;100.00
5284;BME280;15377;48.540;9.268;2023-02-15T11:41:34;98550.66;;;7.82;100.00
5284;BME280;15377;48.540;9.268;2023-02-15T11:44:08;98531.81;;;7.68;100.00
5284;BME280;15377;48.540;9.268;2023-02-15T11:46:38;98543.03;;;7.74;100.00
5284;BME280;15377;48.540;9.268;2023-02-15T11:49:29;98541.59;;;7.85;100.00
5284;BME280;15377;48.540;9.268;2023-02-15T11:51:56;98538.78;;;7.89;100.00
5284;BME280;15377;48.540;9.268;2023-02-15T11:54:29;98533.91;;;7.96;100.00
5284;BME280;15377;48.540;9.268;2023-02-15T11:57:04;98539.22;;;8.03;100.00
5284;BME280;15377;48.540;9.268;2023-02-15T11:59:37;98540.09;;;8.16;100.00
5284;BME280;15377;48.540;9.268;2023-02-15T12:02:18;98538.75;;;8.24;100.00
5284;BME280;15377;48.540;9.268;2023-02-15T12:04:49;98538.56;;;8.31;100.00
5284;BME280;15377;48.540;9.268;2023-02-15T12:07:34;98536.66;;;8.44;100.00
5284;BME280;15377;48.540;9.268;2023-02-15T12:10:22;98526.88;;;8.59;100.00
5284;BME280;15377;48.540;9.268;2023-02-15T12:13:19;98523.53;;;8.68;100.00
5284;BME280;15377;48.540;9.268;2023-02-15T12:15:56;98525.47;;;8.83;100.00
5284;BME280;15377;48.540;9.268;2023-02-15T12:18:41;98522.09;;;8.92;100.00
5284;BME280;15377;48.540;9.268;2023-02-15T12:21:15;98526.63;;;8.98;98.97
5284;BME280;15377;48.540;9.268;2023-02-15T12:23:52;98511.69;;;8.99;96.64
5284;BME280;15377;48.540;9.268;2023-02-15T12:26:27;98493.66;;;8.98;95.83
5284;BME280;15377;48.540;9.268;2023-02-15T12:28:54;98504.81;;;9.20;95.67
5284;BME280;15377;48.540;9.268;2023-02-15T12:31:24;98511.13;;;9.33;95.34
5284;BME280;15377;48.540;9.268;2023-02-15T12:33:53;98505.19;;;9.34;95.10
5284;BME280;15377;48.540;9.268;2023-02-15T12:36:22;98508.06;;;9.43;94.95
5284;BME280;15377;48.540;9.268;2023-02-15T12:41:43;98505.88;;;9.63;91.14
5284;BME280;15377;48.540;9.268;2023-02-15T12:44:20;98497.41;;;9.70;90.37
5284;BME280;15377;48.540;9.268;2023-02-15T12:49:23;98494.03;;;9.79;88.25
5284;BME280;15377;48.540;9.268;2023-02-15T12:51:52;98497.31;;;9.86;85.21
5284;BME280;15377;48.540;9.268;2023-02-15T12:54:31;98488.63;;;9.88;84.72
5284;BME280;15377;48.540;9.268;2023-02-15T12:56:58;98494.34;;;9.93;84.63
5284;BME280;15377;48.540;9.268;2023-02-15T12:59:24;98480.59;;;10.06;80.34
5284;BME280;15377;48.540;9.268;2023-02-15T13:01:51;98484.66;;;10.01;82.90
5284;BME280;15377;48.540;9.268;2023-02-15T13:04:22;98480.94;;;9.95;81.89
5284;BME280;15377;48.540;9.268;2023-02-15T13:06:51;98478.84;;;9.99;82.22
5284;BME280;15377;48.540;9.268;2023-02-15T13:09:37;98490.28;;;10.10;85.62
5284;BME280;15377;48.540;9.268;2023-02-15T13:12:24;98480.59;;;10.18;92.33
5284;BME280;15377;48.540;9.268;2023-02-15T13:14:55;98485.34;;;10.18;96.80
5284;BME280;15377;48.540;9.268;2023-02-15T13:17:32;98474.44;;;10.14;97.39
5284;BME280;15377;48.540;9.268;2023-02-15T13:20:10;98473.78;;;10.10;97.81
5284;BME280;15377;48.540;9.268;2023-02-15T13:22:45;98467.84;;;9.99;97.12
5284;BME280;15377;48.540;9.268;2023-02-15T13:25:17;98456.72;;;10.15;96.88
5284;BME280;15377;48.540;9.268;2023-02-15T13:27:44;98466.06;;;10.30;96.60
5284;BME280;15377;48.540;9.268;2023-02-15T13:30:42;98450.97;;;10.35;96.32
5284;BME280;15377;48.540;9.268;2023-02-15T13:36:02;98446.88;;;10.39;93.20
5284;BME280;15377;48.540;9.268;2023-02-15T13:41:27;98445.91;;;10.33;92.19
5284;BME280;15377;48.540;9.268;2023-02-15T13:44:09;98455.59;;;10.25;93.24
5284;BME280;15377;48.540;9.268;2023-02-15T13:47:17;98456.69;;;10.28;95.70
5284;BME280;15377;48.540;9.268;2023-02-15T13:49:55;98449.44;;;10.34;96.67
5284;BME280;15377;48.540;9.268;2023-02-15T13:52:28;98438.66;;;10.27;96.86
5284;BME280;15377;48.540;9.268;2023-02-15T13:55:11;98443.06;;;10.24;96.81
5284;BME280;15377;48.540;9.268;2023-02-15T14:00:29;98443.38;;;10.26;92.94
5284;BME280;15377;48.540;9.268;2023-02-15T14:05:44;98429.81;;;10.44;87.19
5284;BME280;15377;48.540;9.268;2023-02-15T14:08:34;98429.22;;;10.49;86.87
5284;BME280;15377;48.540;9.268;2023-02-15T14:11:13;98435.38;;;10.53;83.18
5284;BME280;15377;48.540;9.268;2023-02-15T14:14:04;98405.03;;;10.44;83.56
5284;BME280;15377;48.540;9.268;2023-02-15T14:19:23;98428.59;;;10.67;82.91
5284;BME280;15377;48.540;9.268;2023-02-15T14:21:59;98426.69;;;10.76;81.50
5284;BME280;15377;48.540;9.268;2023-02-15T14:24:59;98425.72;;;10.70;82.80
5284;BME280;15377;48.540;9.268;2023-02-15T14:27:43;98425.72;;;10.70;80.76
5284;BME280;15377;48.540;9.268;2023-02-15T14:30:31;98428.72;;;10.63;80.49
5284;BME280;15377;48.540;9.268;2023-02-15T14:33:06;98427.19;;;10.62;79.81
5284;BME280;15377;48.540;9.268;2023-02-15T14:35:32;98426.09;;;10.81;77.67
5284;BME280;15377;48.540;9.268;2023-02-15T14:38:06;98422.00;;;10.85;76.39
5284;BME280;15377;48.540;9.268;2023-02-15T14:40:51;98424.91;;;10.82;73.91
5284;BME280;15377;48.540;9.268;2023-02-15T14:48:55;98433.47;;;10.84;69.66
5284;BME280;15377;48.540;9.268;2023-02-15T14:54:10;98428.22;;;10.77;70.15